sensor_id;sensor_type;location;lat;lon;timestamp;P1;durP1;ratioP1;P2;durP2;ratioP2
41343;SDS011;27089;50.022;7.604;2023-10-09T00:01:28;9.03;;;4.80;;
41343;SDS011;27089;50.022;7.604;2023-10-09T00:03:56;12.20;;;5.10;;
41343;SDS011;27089;50.022;7.604;2023-10-09T00:06:26;13.50;;;4.90;;
41343;SDS011;27089;50.022;7.604;2023-10-09T00:09:02;10.07;;;5.27;;
41343;SDS011;27089;50.022;7.604;2023-10-09T00:11:42;10.40;;;5.13;;
41343;SDS011;27089;50.022;7.604;2023-10-09T00:14:10;9.47;;;5.17;;
41343;SDS011;27089;50.022;7.604;2023-10-09T00:16:38;9.77;;;5.13;;
41343;SDS011;27089;50.022;7.604;2023-10-09T00:19:12;9.47;;;4.53;;
41343;SDS011;27089;50.022;7.604;2023-10-09T00:21:42;10.90;;;4.70;;
41343;SDS011;27089;50.022;7.604;2023-10-09T00:24:09;10.47;;;4.60;;
41343;SDS011;27089;50.022;7.604;2023-10-09T00:26:39;9.03;;;4.57;;
41343;SDS011;27089;50.022;7.604;2023-10-09T00:29:11;9.23;;;4.27;;
41343;SDS011;27089;50.022;7.604;2023-10-09T00:31:48;10.90;;;4.67;;
41343;SDS011;27089;50.022;7.604;2023-10-09T00:34:28;7.63;;;4.83;;
41343;SDS011;27089;50.022;7.604;2023-10-09T00:37:04;8.07;;;4.37;;
41343;SDS011;27089;50.022;7.604;2023-10-09T00:39:36;10.53;;;5.07;;
41343;SDS011;27089;50.022;7.604;2023-10-09T00:42:08;10.27;;;5.20;;
41343;SDS011;27089;50.022;7.604;2023-10-09T00:44:40;10.40;;;4.83;;
41343;SDS011;27089;50.022;7.604;2023-10-09T00:47:12;9.00;;;4.60;;
41343;SDS011;27089;50.022;7.604;2023-10-09T00:49:52;7.03;;;4.40;;
41343;SDS011;27089;50.022;7.604;2023-10-09T00:52:26;9.37;;;4.50;;
41343;SDS011;27089;50.022;7.604;2023-10-09T00:55:02;7.77;;;4.40;;
41343;SDS011;27089;50.022;7.604;2023-10-09T00:57:38;8.20;;;4.50;;
41343;SDS011;27089;50.022;7.604;2023-10-09T01:00:07;10.67;;;4.57;;
41343;SDS011;27089;50.022;7.604;2023-10-09T01:02:50;7.03;;;4.27;;
41343;SDS011;27089;50.022;7.604;2023-10-09T01:05:35;8.07;;;4.37;;
41343;SDS011;27089;50.022;7.604;2023-10-09T01:08:03;8.60;;;4.57;;
41343;SDS011;27089;50.022;7.604;2023-10-09T01:10:44;9.27;;;4.53;;
41343;SDS011;27089;50.022;7.604;2023-10-09T01:13:16;9.43;;;4.70;;
41343;SDS011;27089;50.022;7.604;2023-10-09T01:15:44;9.00;;;5.07;;
41343;SDS011;27089;50.022;7.604;2023-10-09T01:18:14;9.17;;;4.73;;
41343;SDS011;27089;50.022;7.604;2023-10-09T01:20:44;13.63;;;5.30;;
41343;SDS011;27089;50.022;7.604;2023-10-09T01:23:13;10.17;;;5.20;;
41343;SDS011;27089;50.022;7.604;2023-10-09T01:25:40;8.17;;;4.60;;
41343;SDS011;27089;50.022;7.604;2023-10-09T01:28:14;8.90;;;4.50;;
41343;SDS011;27089;50.022;7.604;2023-10-09T01:30:42;8.93;;;4.23;;
41343;SDS011;27089;50.022;7.604;2023-10-09T01:33:11;8.00;;;4.37;;
41343;SDS011;27089;50.022;7.604;2023-10-09T01:35:50;7.03;;;4.47;;
41343;SDS011;27089;50.022;7.604;2023-10-09T01:38:24;6.30;;;4.37;;
41343;SDS011;27089;50.022;7.604;2023-10-09T01:41:06;8.63;;;4.83;;
41343;SDS011;27089;50.022;7.604;2023-10-09T01:43:34;9.70;;;4.90;;
41343;SDS011;27089;50.022;7.604;2023-10-09T01:46:03;8.40;;;4.43;;
41343;SDS011;27089;50.022;7.604;2023-10-09T01:48:30;9.07;;;4.10;;
41343;SDS011;27089;50.022;7.604;2023-10-09T01:51:03;8.27;;;4.47;;
41343;SDS011;27089;50.022;7.604;2023-10-09T01:53:35;10.23;;;4.63;;
41343;SDS011;27089;50.022;7.604;2023-10-09T01:56:12;8.90;;;4.40;;
41343;SDS011;27089;50.022;7.604;2023-10-09T01:58:42;9.00;;;5.07;;
41343;SDS011;27089;50.022;7.604;2023-10-09T02:01:11;9.77;;;4.43;;
41343;SDS011;27089;50.022;7.604;2023-10-09T02:03:39;11.03;;;4.93;;
41343;SDS011;27089;50.022;7.604;2023-10-09T02:06:07;9.17;;;4.60;;
41343;SDS011;27089;50.022;7.604;2023-10-09T02:08:52;9.20;;;4.60;;
41343;SDS011;27089;50.022;7.604;2023-10-09T02:11:19;8.43;;;4.70;;
41343;SDS011;27089;50.022;7.604;2023-10-09T02:14:01;12.57;;;4.50;;
41343;SDS011;27089;50.022;7.604;2023-10-09T02:16:44;9.73;;;4.30;;
41343;SDS011;27089;50.022;7.604;2023-10-09T02:19:27;9.27;;;4.40;;
41343;SDS011;27089;50.022;7.604;2023-10-09T02:21:58;7.97;;;4.67;;
41343;SDS011;27089;50.022;7.604;2023-10-09T02:24:29;8.00;;;4.50;;
41343;SDS011;27089;50.022;7.604;2023-10-09T02:27:23;8.10;;;4.40;;
41343;SDS011;27089;50.022;7.604;2023-10-09T02:30:08;7.47;;;4.50;;
41343;SDS011;27089;50.022;7.604;2023-10-09T02:32:42;8.47;;;4.13;;
41343;SDS011;27089;50.022;7.604;2023-10-09T02:35:10;7.33;;;3.80;;
41343;SDS011;27089;50.022;7.604;2023-10-09T02:37:46;9.77;;;4.97;;
41343;SDS011;27089;50.022;7.604;2023-10-09T02:40:15;9.00;;;4.73;;
41343;SDS011;27089;50.022;7.604;2023-10-09T02:42:49;7.63;;;4.90;;
41343;SDS011;27089;50.022;7.604;2023-10-09T02:45:17;7.33;;;4.30;;
41343;SDS011;27089;50.022;7.604;2023-10-09T02:47:44;7.07;;;4.50;;
41343;SDS011;27089;50.022;7.604;2023-10-09T02:50:14;6.47;;;4.20;;
41343;SDS011;27089;50.022;7.604;2023-10-09T02:52:46;9.17;;;4.20;;
41343;SDS011;27089;50.022;7.604;2023-10-09T02:55:19;8.07;;;4.27;;
41343;SDS011;27089;50.022;7.604;2023-10-09T02:57:51;7.07;;;4.40;;
41343;SDS011;27089;50.022;7.604;2023-10-09T03:00:29;8.03;;;3.93;;
41343;SDS011;27089;50.022;7.604;2023-10-09T03:02:58;7.47;;;3.90;;
41343;SDS011;27089;50.022;7.604;2023-10-09T03:05:25;8.37;;;4.10;;
41343;SDS011;27089;50.022;7.604;2023-10-09T03:07:53;8.47;;;4.17;;
41343;SDS011;27089;50.022;7.604;2023-10-09T03:10:23;6.87;;;4.10;;
41343;SDS011;27089;50.022;7.604;2023-10-09T03:12:50;8.60;;;4.60;;
41343;SDS011;27089;50.022;7.604;2023-10-09T03:15:18;9.30;;;3.97;;
41343;SDS011;27089;50.022;7.604;2023-10-09T03:17:45;8.50;;;4.60;;
41343;SDS011;27089;50.022;7.604;2023-10-09T03:20:13;10.37;;;4.30;;
41343;SDS011;27089;50.022;7.604;2023-10-09T03:22:42;9.03;;;4.23;;
41343;SDS011;27089;50.022;7.604;2023-10-09T03:25:11;7.00;;;4.70;;
41343;SDS011;27089;50.022;7.604;2023-10-09T03:27:40;8.43;;;4.77;;
41343;SDS011;27089;50.022;7.604;2023-10-09T03:30:11;6.47;;;4.23;;
41343;SDS011;27089;50.022;7.604;2023-10-09T03:32:43;8.70;;;4.43;;
41343;SDS011;27089;50.022;7.604;2023-10-09T03:35:15;8.97;;;3.87;;
41343;SDS011;27089;50.022;7.604;2023-10-09T03:37:49;8.87;;;4.67;;
41343;SDS011;27089;50.022;7.604;2023-10-09T03:40:17;10.27;;;4.53;;
41343;SDS011;27089;50.022;7.604;2023-10-09T03:42:45;9.17;;;4.60;;
41343;SDS011;27089;50.022;7.604;2023-10-09T03:45:13;7.73;;;4.33;;
41343;SDS011;27089;50.022;7.604;2023-10-09T03:47:51;8.27;;;4.20;;
41343;SDS011;27089;50.022;7.604;2023-10-09T03:50:22;7.73;;;4.07;;
41343;SDS011;27089;50.022;7.604;2023-10-09T03:53:00;6.80;;;4.20;;
41343;SDS011;27089;50.022;7.604;2023-10-09T03:55:29;6.53;;;4.07;;
41343;SDS011;27089;50.022;7.604;2023-10-09T03:57:58;6.70;;;4.30;;
41343;SDS011;27089;50.022;7.604;2023-10-09T04:00:27;5.53;;;3.57;;
41343;SDS011;27089;50.022;7.604;2023-10-09T04:02:56;5.77;;;3.87;;
41343;SDS011;27089;50.022;7.604;2023-10-09T04:05:25;10.77;;;4.73;;
41343;SDS011;27089;50.022;7.604;2023-10-09T04:07:54;8.20;;;4.97;;
41343;SDS011;27089;50.022;7.604;2023-10-09T04:10:23;9.03;;;6.57;;
41343;SDS011;27089;50.022;7.604;2023-10-09T04:13:10;7.23;;;4.63;;
41343;SDS011;27089;50.022;7.604;2023-10-09T04:15:42;7.50;;;4.70;;
41343;SDS011;27089;50.022;7.604;2023-10-09T04:18:09;9.37;;;4.83;;
41343;SDS011;27089;50.022;7.604;2023-10-09T04:20:42;10.90;;;4.47;;
41343;SDS011;27089;50.022;7.604;2023-10-09T04:23:40;6.77;;;4.40;;
41343;SDS011;27089;50.022;7.604;2023-10-09T04:26:21;8.83;;;4.10;;
41343;SDS011;27089;50.022;7.604;2023-10-09T04:28:51;6.27;;;4.00;;
41343;SDS011;27089;50.022;7.604;2023-10-09T04:31:19;6.30;;;4.17;;
41343;SDS011;27089;50.022;7.604;2023-10-09T04:33:52;7.03;;;4.47;;
41343;SDS011;27089;50.022;7.604;2023-10-09T04:36:44;7.33;;;4.57;;
41343;SDS011;27089;50.022;7.604;2023-10-09T04:39:14;7.10;;;4.10;;
41343;SDS011;27089;50.022;7.604;2023-10-09T04:42:00;9.70;;;5.00;;
41343;SDS011;27089;50.022;7.604;2023-10-09T04:44:53;8.43;;;4.63;;
41343;SDS011;27089;50.022;7.604;2023-10-09T04:47:43;5.90;;;4.23;;
41343;SDS011;27089;50.022;7.604;2023-10-09T04:50:23;8.10;;;4.40;;
41343;SDS011;27089;50.022;7.604;2023-10-09T04:53:07;7.40;;;4.03;;
41343;SDS011;27089;50.022;7.604;2023-10-09T04:55:48;9.23;;;4.83;;
41343;SDS011;27089;50.022;7.604;2023-10-09T04:58:23;9.03;;;5.37;;
41343;SDS011;27089;50.022;7.604;2023-10-09T05:00:52;7.10;;;4.70;;
41343;SDS011;27089;50.022;7.604;2023-10-09T05:03:30;8.80;;;4.93;;
41343;SDS011;27089;50.022;7.604;2023-10-09T05:06:09;9.03;;;4.70;;
41343;SDS011;27089;50.022;7.604;2023-10-09T05:09:08;7.57;;;4.97;;
41343;SDS011;27089;50.022;7.604;2023-10-09T05:11:38;7.70;;;4.70;;
41343;SDS011;27089;50.022;7.604;2023-10-09T05:14:25;9.87;;;4.47;;
41343;SDS011;27089;50.022;7.604;2023-10-09T05:17:05;7.53;;;4.63;;
41343;SDS011;27089;50.022;7.604;2023-10-09T05:19:40;11.20;;;4.87;;
41343;SDS011;27089;50.022;7.604;2023-10-09T05:22:08;6.80;;;4.47;;
41343;SDS011;27089;50.022;7.604;2023-10-09T05:24:42;8.63;;;4.37;;
41343;SDS011;27089;50.022;7.604;2023-10-09T05:27:12;7.70;;;4.70;;
41343;SDS011;27089;50.022;7.604;2023-10-09T05:30:10;8.73;;;4.57;;
41343;SDS011;27089;50.022;7.604;2023-10-09T05:32:51;7.83;;;5.07;;
41343;SDS011;27089;50.022;7.604;2023-10-09T05:35:23;7.53;;;4.87;;
41343;SDS011;27089;50.022;7.604;2023-10-09T05:38:05;8.97;;;4.53;;
41343;SDS011;27089;50.022;7.604;2023-10-09T05:40:49;11.03;;;4.80;;
41343;SDS011;27089;50.022;7.604;2023-10-09T05:43:19;8.17;;;4.17;;
41343;SDS011;27089;50.022;7.604;2023-10-09T05:46:01;10.10;;;4.30;;
41343;SDS011;27089;50.022;7.604;2023-10-09T05:48:35;9.40;;;4.20;;
41343;SDS011;27089;50.022;7.604;2023-10-09T05:51:19;7.60;;;4.50;;
41343;SDS011;27089;50.022;7.604;2023-10-09T05:54:04;7.63;;;4.47;;
41343;SDS011;27089;50.022;7.604;2023-10-09T05:57:03;10.17;;;4.93;;
41343;SDS011;27089;50.022;7.604;2023-10-09T05:59:49;9.73;;;4.73;;
41343;SDS011;27089;50.022;7.604;2023-10-09T06:02:34;19.60;;;7.80;;
41343;SDS011;27089;50.022;7.604;2023-10-09T06:05:19;11.50;;;5.47;;
41343;SDS011;27089;50.022;7.604;2023-10-09T06:08:03;13.07;;;4.70;;
41343;SDS011;27089;50.022;7.604;2023-10-09T06:10:32;8.73;;;4.77;;
41343;SDS011;27089;50.022;7.604;2023-10-09T06:13:05;10.00;;;5.70;;
41343;SDS011;27089;50.022;7.604;2023-10-09T06:15:51;9.13;;;4.90;;
41343;SDS011;27089;50.022;7.604;2023-10-09T06:18:34;6.90;;;4.10;;
41343;SDS011;27089;50.022;7.604;2023-10-09T06:21:08;7.03;;;4.53;;
41343;SDS011;27089;50.022;7.604;2023-10-09T06:23:56;8.03;;;4.23;;
41343;SDS011;27089;50.022;7.604;2023-10-09T06:26:49;9.83;;;4.63;;
41343;SDS011;27089;50.022;7.604;2023-10-09T06:29:32;9.07;;;5.43;;
41343;SDS011;27089;50.022;7.604;2023-10-09T06:32:00;8.87;;;5.20;;
41343;SDS011;27089;50.022;7.604;2023-10-09T06:34:59;8.17;;;5.03;;
41343;SDS011;27089;50.022;7.604;2023-10-09T06:37:45;9.37;;;4.87;;
41343;SDS011;27089;50.022;7.604;2023-10-09T06:40:31;8.20;;;4.67;;
41343;SDS011;27089;50.022;7.604;2023-10-09T06:43:17;7.40;;;4.13;;
41343;SDS011;27089;50.022;7.604;2023-10-09T06:45:52;7.80;;;3.70;;
41343;SDS011;27089;50.022;7.604;2023-10-09T06:48:21;8.53;;;4.23;;
41343;SDS011;27089;50.022;7.604;2023-10-09T06:51:06;6.67;;;4.07;;
41343;SDS011;27089;50.022;7.604;2023-10-09T06:53:39;9.03;;;4.73;;
41343;SDS011;27089;50.022;7.604;2023-10-09T06:56:23;6.53;;;4.27;;
41343;SDS011;27089;50.022;7.604;2023-10-09T06:59:12;6.33;;;4.30;;
41343;SDS011;27089;50.022;7.604;2023-10-09T07:01:42;6.67;;;4.57;;
41343;SDS011;27089;50.022;7.604;2023-10-09T07:04:11;7.07;;;5.20;;
41343;SDS011;27089;50.022;7.604;2023-10-09T07:06:44;8.40;;;5.10;;
41343;SDS011;27089;50.022;7.604;2023-10-09T07:09:23;9.50;;;4.80;;
41343;SDS011;27089;50.022;7.604;2023-10-09T07:11:52;8.27;;;5.10;;
41343;SDS011;27089;50.022;7.604;2023-10-09T07:14:35;7.53;;;4.73;;
41343;SDS011;27089;50.022;7.604;2023-10-09T07:17:19;10.43;;;4.77;;
41343;SDS011;27089;50.022;7.604;2023-10-09T07:19:51;9.73;;;5.30;;
41343;SDS011;27089;50.022;7.604;2023-10-09T07:22:40;9.30;;;4.90;;
41343;SDS011;27089;50.022;7.604;2023-10-09T07:25:22;8.70;;;5.07;;
41343;SDS011;27089;50.022;7.604;2023-10-09T07:28:09;15.17;;;9.07;;
41343;SDS011;27089;50.022;7.604;2023-10-09T07:31:01;24.00;;;17.20;;
41343;SDS011;27089;50.022;7.604;2023-10-09T07:33:28;18.73;;;13.53;;
41343;SDS011;27089;50.022;7.604;2023-10-09T07:36:17;15.53;;;9.73;;
41343;SDS011;27089;50.022;7.604;2023-10-09T07:38:55;14.00;;;10.40;;
41343;SDS011;27089;50.022;7.604;2023-10-09T07:41:31;12.70;;;7.10;;
41343;SDS011;27089;50.022;7.604;2023-10-09T07:44:05;7.53;;;5.50;;
41343;SDS011;27089;50.022;7.604;2023-10-09T07:46:50;8.23;;;5.10;;
41343;SDS011;27089;50.022;7.604;2023-10-09T07:49:38;7.97;;;4.70;;
41343;SDS011;27089;50.022;7.604;2023-10-09T07:52:04;10.20;;;6.23;;
41343;SDS011;27089;50.022;7.604;2023-10-09T07:54:31;13.00;;;8.23;;
41343;SDS011;27089;50.022;7.604;2023-10-09T07:57:00;12.63;;;7.23;;
41343;SDS011;27089;50.022;7.604;2023-10-09T07:59:34;12.80;;;8.37;;
41343;SDS011;27089;50.022;7.604;2023-10-09T08:02:06;14.30;;;9.50;;
41343;SDS011;27089;50.022;7.604;2023-10-09T08:04:38;11.67;;;6.77;;
41343;SDS011;27089;50.022;7.604;2023-10-09T08:07:13;9.20;;;5.30;;
41343;SDS011;27089;50.022;7.604;2023-10-09T08:09:51;8.57;;;5.00;;
41343;SDS011;27089;50.022;7.604;2023-10-09T08:12:33;11.93;;;4.80;;
41343;SDS011;27089;50.022;7.604;2023-10-09T08:15:23;9.80;;;4.47;;
41343;SDS011;27089;50.022;7.604;2023-10-09T08:17:53;9.97;;;4.83;;
41343;SDS011;27089;50.022;7.604;2023-10-09T08:20:24;7.27;;;5.00;;
41343;SDS011;27089;50.022;7.604;2023-10-09T08:22:51;9.53;;;5.30;;
41343;SDS011;27089;50.022;7.604;2023-10-09T08:25:21;11.33;;;5.70;;
41343;SDS011;27089;50.022;7.604;2023-10-09T08:27:55;11.30;;;4.90;;
41343;SDS011;27089;50.022;7.604;2023-10-09T08:30:36;8.50;;;4.47;;
41343;SDS011;27089;50.022;7.604;2023-10-09T08:33:16;10.57;;;5.30;;
41343;SDS011;27089;50.022;7.604;2023-10-09T08:36:06;9.33;;;4.40;;
41343;SDS011;27089;50.022;7.604;2023-10-09T08:38:34;7.97;;;3.87;;
41343;SDS011;27089;50.022;7.604;2023-10-09T08:41:08;9.43;;;4.40;;
41343;SDS011;27089;50.022;7.604;2023-10-09T08:43:49;8.13;;;4.13;;
41343;SDS011;27089;50.022;7.604;2023-10-09T08:46:20;6.93;;;4.43;;
41343;SDS011;27089;50.022;7.604;2023-10-09T08:48:51;9.63;;;4.87;;
41343;SDS011;27089;50.022;7.604;2023-10-09T08:51:20;8.47;;;5.07;;
41343;SDS011;27089;50.022;7.604;2023-10-09T08:53:48;6.93;;;4.67;;
41343;SDS011;27089;50.022;7.604;2023-10-09T08:56:16;7.00;;;4.30;;
41343;SDS011;27089;50.022;7.604;2023-10-09T08:58:52;8.00;;;4.50;;
41343;SDS011;27089;50.022;7.604;2023-10-09T09:01:21;11.00;;;4.43;;
41343;SDS011;27089;50.022;7.604;2023-10-09T09:03:50;13.23;;;6.30;;
41343;SDS011;27089;50.022;7.604;2023-10-09T09:06:21;12.47;;;6.67;;
41343;SDS011;27089;50.022;7.604;2023-10-09T09:08:48;14.00;;;7.57;;
41343;SDS011;27089;50.022;7.604;2023-10-09T09:11:20;13.80;;;8.47;;
41343;SDS011;27089;50.022;7.604;2023-10-09T09:14:02;10.73;;;6.07;;
41343;SDS011;27089;50.022;7.604;2023-10-09T09:16:31;10.90;;;6.57;;
41343;SDS011;27089;50.022;7.604;2023-10-09T09:19:00;11.43;;;6.37;;
41343;SDS011;27089;50.022;7.604;2023-10-09T09:21:30;9.57;;;5.60;;
41343;SDS011;27089;50.022;7.604;2023-10-09T09:24:04;8.43;;;4.90;;
41343;SDS011;27089;50.022;7.604;2023-10-09T09:26:40;8.60;;;4.47;;
41343;SDS011;27089;50.022;7.604;2023-10-09T09:29:13;8.53;;;4.43;;
41343;SDS011;27089;50.022;7.604;2023-10-09T09:31:52;9.00;;;4.00;;
41343;SDS011;27089;50.022;7.604;2023-10-09T09:34:20;9.43;;;4.10;;
41343;SDS011;27089;50.022;7.604;2023-10-09T09:36:51;9.63;;;4.25;;
41343;SDS011;27089;50.022;7.604;2023-10-09T09:39:20;5.78;;;3.92;;
41343;SDS011;27089;50.022;7.604;2023-10-09T09:41:53;11.30;;;4.27;;
41343;SDS011;27089;50.022;7.604;2023-10-09T09:44:24;6.80;;;4.07;;
41343;SDS011;27089;50.022;7.604;2023-10-09T09:46:56;10.98;;;3.88;;
41343;SDS011;27089;50.022;7.604;2023-10-09T09:49:25;6.32;;;3.58;;
41343;SDS011;27089;50.022;7.604;2023-10-09T09:51:57;7.85;;;4.05;;
41343;SDS011;27089;50.022;7.604;2023-10-09T09:54:26;7.22;;;3.63;;
41343;SDS011;27089;50.022;7.604;2023-10-09T09:56:58;6.95;;;3.10;;
41343;SDS011;27089;50.022;7.604;2023-10-09T09:59:36;8.07;;;3.67;;
41343;SDS011;27089;50.022;7.604;2023-10-09T10:02:16;20.17;;;4.40;;
41343;SDS011;27089;50.022;7.604;2023-10-09T10:04:49;9.35;;;4.32;;
41343;SDS011;27089;50.022;7.604;2023-10-09T10:07:19;15.65;;;7.32;;
41343;SDS011;27089;50.022;7.604;2023-10-09T10:09:51;10.43;;;5.20;;
41343;SDS011;27089;50.022;7.604;2023-10-09T10:18:34;12.57;;;5.60;;
41343;SDS011;27089;50.022;7.604;2023-10-09T10:21:19;13.25;;;6.65;;
41343;SDS011;27089;50.022;7.604;2023-10-09T10:23:58;8.85;;;4.78;;
41343;SDS011;27089;50.022;7.604;2023-10-09T10:26:31;7.72;;;3.30;;
41343;SDS011;27089;50.022;7.604;2023-10-09T10:29:15;6.07;;;3.47;;
41343;SDS011;27089;50.022;7.604;2023-10-09T10:31:54;5.72;;;3.33;;
41343;SDS011;27089;50.022;7.604;2023-10-09T10:34:22;6.53;;;3.50;;
41343;SDS011;27089;50.022;7.604;2023-10-09T10:36:50;7.45;;;4.05;;
41343;SDS011;27089;50.022;7.604;2023-10-09T10:39:23;8.02;;;3.50;;
41343;SDS011;27089;50.022;7.604;2023-10-09T10:42:08;8.00;;;3.58;;
41343;SDS011;27089;50.022;7.604;2023-10-09T10:44:40;4.60;;;3.47;;
41343;SDS011;27089;50.022;7.604;2023-10-09T10:47:11;4.82;;;3.53;;
41343;SDS011;27089;50.022;7.604;2023-10-09T10:49:50;6.35;;;4.20;;
41343;SDS011;27089;50.022;7.604;2023-10-09T10:52:23;5.60;;;3.75;;
41343;SDS011;27089;50.022;7.604;2023-10-09T10:55:07;8.50;;;4.18;;
41343;SDS011;27089;50.022;7.604;2023-10-09T10:58:14;7.28;;;3.80;;
41343;SDS011;27089;50.022;7.604;2023-10-09T11:00:51;5.38;;;3.53;;
41343;SDS011;27089;50.022;7.604;2023-10-09T11:03:38;5.53;;;3.20;;
41343;SDS011;27089;50.022;7.604;2023-10-09T11:06:27;6.60;;;3.28;;
41343;SDS011;27089;50.022;7.604;2023-10-09T11:09:04;6.63;;;3.50;;
41343;SDS011;27089;50.022;7.604;2023-10-09T11:11:46;6.75;;;3.30;;
41343;SDS011;27089;50.022;7.604;2023-10-09T11:14:14;6.78;;;4.00;;
41343;SDS011;27089;50.022;7.604;2023-10-09T11:16:42;4.68;;;3.30;;
41343;SDS011;27089;50.022;7.604;2023-10-09T11:19:14;6.82;;;3.45;;
41343;SDS011;27089;50.022;7.604;2023-10-09T11:21:54;6.15;;;3.88;;
41343;SDS011;27089;50.022;7.604;2023-10-09T11:24:46;7.22;;;3.58;;
41343;SDS011;27089;50.022;7.604;2023-10-09T11:27:26;6.05;;;3.33;;
41343;SDS011;27089;50.022;7.604;2023-10-09T11:29:57;7.07;;;3.53;;
41343;SDS011;27089;50.022;7.604;2023-10-09T11:32:30;8.43;;;3.83;;
41343;SDS011;27089;50.022;7.604;2023-10-09T11:37:44;6.63;;;3.95;;
41343;SDS011;27089;50.022;7.604;2023-10-09T11:40:28;7.50;;;4.95;;
41343;SDS011;27089;50.022;7.604;2023-10-09T11:43:00;5.75;;;3.78;;
41343;SDS011;27089;50.022;7.604;2023-10-09T11:45:28;5.53;;;3.55;;
41343;SDS011;27089;50.022;7.604;2023-10-09T11:47:55;6.20;;;3.47;;
41343;SDS011;27089;50.022;7.604;2023-10-09T11:50:40;7.35;;;4.15;;
41343;SDS011;27089;50.022;7.604;2023-10-09T11:53:08;7.45;;;3.67;;
41343;SDS011;27089;50.022;7.604;2023-10-09T11:55:43;5.15;;;3.50;;
41343;SDS011;27089;50.022;7.604;2023-10-09T11:58:13;8.38;;;3.88;;
41343;SDS011;27089;50.022;7.604;2023-10-09T12:00:47;8.52;;;4.38;;
41343;SDS011;27089;50.022;7.604;2023-10-09T12:03:16;8.77;;;4.60;;
41343;SDS011;27089;50.022;7.604;2023-10-09T12:05:49;8.45;;;3.95;;
41343;SDS011;27089;50.022;7.604;2023-10-09T12:08:18;6.88;;;3.67;;
41343;SDS011;27089;50.022;7.604;2023-10-09T12:10:47;5.80;;;3.53;;
41343;SDS011;27089;50.022;7.604;2023-10-09T12:13:14;7.03;;;4.00;;
41343;SDS011;27089;50.022;7.604;2023-10-09T12:15:41;7.47;;;4.10;;
41343;SDS011;27089;50.022;7.604;2023-10-09T12:18:11;6.63;;;3.83;;
41343;SDS011;27089;50.022;7.604;2023-10-09T12:20:41;6.50;;;3.90;;
41343;SDS011;27089;50.022;7.604;2023-10-09T12:23:16;6.50;;;3.80;;
41343;SDS011;27089;50.022;7.604;2023-10-09T12:25:43;6.88;;;3.65;;
41343;SDS011;27089;50.022;7.604;2023-10-09T12:28:11;6.10;;;4.03;;
41343;SDS011;27089;50.022;7.604;2023-10-09T12:30:39;7.18;;;4.13;;
41343;SDS011;27089;50.022;7.604;2023-10-09T12:33:07;8.68;;;3.83;;
41343;SDS011;27089;50.022;7.604;2023-10-09T12:35:38;7.10;;;3.55;;
41343;SDS011;27089;50.022;7.604;2023-10-09T12:38:06;7.90;;;3.75;;
41343;SDS011;27089;50.022;7.604;2023-10-09T12:40:36;6.60;;;3.85;;
41343;SDS011;27089;50.022;7.604;2023-10-09T12:43:05;7.85;;;3.70;;
41343;SDS011;27089;50.022;7.604;2023-10-09T12:45:40;5.43;;;3.45;;
41343;SDS011;27089;50.022;7.604;2023-10-09T12:48:07;7.10;;;3.33;;
41343;SDS011;27089;50.022;7.604;2023-10-09T12:50:35;5.90;;;3.20;;
41343;SDS011;27089;50.022;7.604;2023-10-09T12:53:07;5.47;;;3.20;;
41343;SDS011;27089;50.022;7.604;2023-10-09T12:55:37;4.40;;;3.33;;
41343;SDS011;27089;50.022;7.604;2023-10-09T12:58:06;6.88;;;3.75;;
41343;SDS011;27089;50.022;7.604;2023-10-09T13:00:34;7.63;;;3.38;;
41343;SDS011;27089;50.022;7.604;2023-10-09T13:03:05;5.85;;;3.50;;
41343;SDS011;27089;50.022;7.604;2023-10-09T13:05:44;5.75;;;2.95;;
41343;SDS011;27089;50.022;7.604;2023-10-09T13:08:22;6.43;;;3.17;;
41343;SDS011;27089;50.022;7.604;2023-10-09T13:11:01;4.93;;;3.00;;
41343;SDS011;27089;50.022;7.604;2023-10-09T13:13:35;8.60;;;3.47;;
41343;SDS011;27089;50.022;7.604;2023-10-09T13:16:10;6.35;;;3.53;;
41343;SDS011;27089;50.022;7.604;2023-10-09T13:18:39;5.55;;;3.50;;
41343;SDS011;27089;50.022;7.604;2023-10-09T13:21:07;7.18;;;3.83;;
41343;SDS011;27089;50.022;7.604;2023-10-09T13:23:34;6.28;;;3.42;;
41343;SDS011;27089;50.022;7.604;2023-10-09T13:26:13;9.90;;;4.07;;
41343;SDS011;27089;50.022;7.604;2023-10-09T13:28:49;4.82;;;2.95;;
41343;SDS011;27089;50.022;7.604;2023-10-09T13:31:17;5.68;;;3.17;;
41343;SDS011;27089;50.022;7.604;2023-10-09T13:33:46;6.10;;;3.42;;
41343;SDS011;27089;50.022;7.604;2023-10-09T13:36:14;5.50;;;2.97;;
41343;SDS011;27089;50.022;7.604;2023-10-09T13:38:52;6.05;;;3.22;;
41343;SDS011;27089;50.022;7.604;2023-10-09T13:41:21;6.35;;;3.42;;
41343;SDS011;27089;50.022;7.604;2023-10-09T13:43:51;6.03;;;3.17;;
41343;SDS011;27089;50.022;7.604;2023-10-09T13:46:18;6.75;;;3.85;;
41343;SDS011;27089;50.022;7.604;2023-10-09T13:48:45;8.43;;;3.55;;
41343;SDS011;27089;50.022;7.604;2023-10-09T13:51:14;9.00;;;4.28;;
41343;SDS011;27089;50.022;7.604;2023-10-09T13:53:43;9.63;;;6.18;;
41343;SDS011;27089;50.022;7.604;2023-10-09T13:56:11;6.70;;;4.13;;
41343;SDS011;27089;50.022;7.604;2023-10-09T13:58:44;7.00;;;3.92;;
41343;SDS011;27089;50.022;7.604;2023-10-09T14:01:12;6.55;;;3.90;;
41343;SDS011;27089;50.022;7.604;2023-10-09T14:03:46;5.88;;;3.45;;
41343;SDS011;27089;50.022;7.604;2023-10-09T14:06:15;6.28;;;3.20;;
41343;SDS011;27089;50.022;7.604;2023-10-09T14:08:47;7.95;;;4.03;;
41343;SDS011;27089;50.022;7.604;2023-10-09T14:11:14;4.68;;;3.65;;
41343;SDS011;27089;50.022;7.604;2023-10-09T14:13:41;8.65;;;4.05;;
41343;SDS011;27089;50.022;7.604;2023-10-09T14:16:09;7.07;;;3.90;;
41343;SDS011;27089;50.022;7.604;2023-10-09T14:18:49;8.45;;;3.20;;
41343;SDS011;27089;50.022;7.604;2023-10-09T14:21:18;7.35;;;3.78;;
41343;SDS011;27089;50.022;7.604;2023-10-09T14:23:46;8.35;;;4.32;;
41343;SDS011;27089;50.022;7.604;2023-10-09T14:26:14;8.00;;;3.97;;
41343;SDS011;27089;50.022;7.604;2023-10-09T14:28:43;8.63;;;3.97;;
41343;SDS011;27089;50.022;7.604;2023-10-09T14:31:12;7.65;;;3.97;;
41343;SDS011;27089;50.022;7.604;2023-10-09T14:33:39;6.00;;;4.20;;
41343;SDS011;27089;50.022;7.604;2023-10-09T14:36:08;7.72;;;4.07;;
41343;SDS011;27089;50.022;7.604;2023-10-09T14:38:39;7.95;;;3.65;;
41343;SDS011;27089;50.022;7.604;2023-10-09T14:41:07;5.45;;;3.60;;
41343;SDS011;27089;50.022;7.604;2023-10-09T14:43:36;7.38;;;4.22;;
41343;SDS011;27089;50.022;7.604;2023-10-09T14:46:04;6.90;;;3.78;;
41343;SDS011;27089;50.022;7.604;2023-10-09T14:48:37;7.78;;;3.90;;
41343;SDS011;27089;50.022;7.604;2023-10-09T14:51:05;5.45;;;3.75;;
41343;SDS011;27089;50.022;7.604;2023-10-09T14:53:32;8.50;;;4.22;;
41343;SDS011;27089;50.022;7.604;2023-10-09T14:56:01;6.90;;;3.72;;
41343;SDS011;27089;50.022;7.604;2023-10-09T14:58:28;9.13;;;4.00;;
41343;SDS011;27089;50.022;7.604;2023-10-09T15:00:58;8.77;;;3.10;;
41343;SDS011;27089;50.022;7.604;2023-10-09T15:03:35;4.70;;;3.30;;
41343;SDS011;27089;50.022;7.604;2023-10-09T15:06:05;7.00;;;3.85;;
41343;SDS011;27089;50.022;7.604;2023-10-09T15:08:35;5.35;;;3.30;;
41343;SDS011;27089;50.022;7.604;2023-10-09T15:11:03;6.65;;;3.70;;
41343;SDS011;27089;50.022;7.604;2023-10-09T15:13:31;7.82;;;3.83;;
41343;SDS011;27089;50.022;7.604;2023-10-09T15:15:58;8.05;;;3.45;;
41343;SDS011;27089;50.022;7.604;2023-10-09T15:18:27;6.75;;;3.92;;
41343;SDS011;27089;50.022;7.604;2023-10-09T15:20:58;5.03;;;3.33;;
41343;SDS011;27089;50.022;7.604;2023-10-09T15:23:27;11.57;;;4.50;;
41343;SDS011;27089;50.022;7.604;2023-10-09T15:25:54;9.27;;;5.38;;
41343;SDS011;27089;50.022;7.604;2023-10-09T15:28:21;8.07;;;5.35;;
41343;SDS011;27089;50.022;7.604;2023-10-09T15:30:49;10.30;;;5.75;;
41343;SDS011;27089;50.022;7.604;2023-10-09T15:33:16;8.65;;;5.20;;
41343;SDS011;27089;50.022;7.604;2023-10-09T15:35:44;9.32;;;5.50;;